sensor_id;sensor_type;location;lat;lon;timestamp;temperature;humidity
70107;DHT22;57473;37.508;15.080;2023-02-22T00:01:32;10.90;99.90
70107;DHT22;57473;37.508;15.080;2023-02-22T00:04:13;10.90;99.90
70107;DHT22;57473;37.508;15.080;2023-02-22T00:06:41;10.80;99.90
70107;DHT22;57473;37.508;15.080;2023-02-22T00:09:08;10.80;99.90
70107;DHT22;57473;37.508;15.080;2023-02-22T00:11:36;10.80;99.90
70107;DHT22;57473;37.508;15.080;2023-02-22T00:14:04;10.80;99.90
70107;DHT22;57473;37.508;15.080;2023-02-22T00:16:31;10.80;99.50
70107;DHT22;57473;37.508;15.080;2023-02-22T00:18:58;10.80;99.70
70107;DHT22;57473;37.508;15.080;2023-02-22T00:21:26;10.80;99.40
70107;DHT22;57473;37.508;15.080;2023-02-22T00:23:53;10.80;99.90
70107;DHT22;57473;37.508;15.080;2023-02-22T00:26:21;10.80;99.90
70107;DHT22;57473;37.508;15.080;2023-02-22T00:28:50;10.80;99.90
70107;DHT22;57473;37.508;15.080;2023-02-22T00:31:18;10.80;99.80
70107;DHT22;57473;37.508;15.080;2023-02-22T00:33:48;10.80;99.80
70107;DHT22;57473;37.508;15.080;2023-02-22T00:36:16;10.70;99.90
70107;DHT22;57473;37.508;15.080;2023-02-22T00:38:43;10.70;99.90
70107;DHT22;57473;37.508;15.080;2023-02-22T00:41:10;10.70;99.90
70107;DHT22;57473;37.508;15.080;2023-02-22T00:43:38;10.60;99.90
70107;DHT22;57473;37.508;15.080;2023-02-22T00:46:05;10.60;99.90
70107;DHT22;57473;37.508;15.080;2023-02-22T00:48:32;10.60;99.90
70107;DHT22;57473;37.508;15.080;2023-02-22T00:51:00;10.50;99.90
70107;DHT22;57473;37.508;15.080;2023-02-22T00:53:28;10.50;99.90
70107;DHT22;57473;37.508;15.080;2023-02-22T00:55:55;10.50;99.90
70107;DHT22;57473;37.508;15.080;2023-02-22T00:58:23;10.50;99.90
70107;DHT22;57473;37.508;15.080;2023-02-22T01:00:50;10.50;99.90
70107;DHT22;57473;37.508;15.080;2023-02-22T01:03:18;10.50;99.90
70107;DHT22;57473;37.508;15.080;2023-02-22T01:05:46;10.50;99.90
70107;DHT22;57473;37.508;15.080;2023-02-22T01:08:14;10.50;99.70
70107;DHT22;57473;37.508;15.080;2023-02-22T01:10:41;10.60;99.00
70107;DHT22;57473;37.508;15.080;2023-02-22T01:13:09;10.60;97.40
70107;DHT22;57473;37.508;15.080;2023-02-22T01:15:41;10.60;96.50
70107;DHT22;57473;37.508;15.080;2023-02-22T01:18:11;10.50;95.60
70107;DHT22;57473;37.508;15.080;2023-02-22T01:20:38;10.50;95.50
70107;DHT22;57473;37.508;15.080;2023-02-22T01:23:06;10.50;95.10
70107;DHT22;57473;37.508;15.080;2023-02-22T01:25:34;10.40;94.90
70107;DHT22;57473;37.508;15.080;2023-02-22T01:28:02;10.40;94.80
70107;DHT22;57473;37.508;15.080;2023-02-22T01:30:32;10.40;95.00
70107;DHT22;57473;37.508;15.080;2023-02-22T01:33:00;10.30;95.50
70107;DHT22;57473;37.508;15.080;2023-02-22T01:35:28;10.30;95.90
70107;DHT22;57473;37.508;15.080;2023-02-22T01:37:56;10.30;95.70
70107;DHT22;57473;37.508;15.080;2023-02-22T01:40:26;10.20;95.90
70107;DHT22;57473;37.508;15.080;2023-02-22T01:42:56;10.20;96.60
70107;DHT22;57473;37.508;15.080;2023-02-22T01:48:01;10.10;97.20
70107;DHT22;57473;37.508;15.080;2023-02-22T01:50:30;10.10;97.70
70107;DHT22;57473;37.508;15.080;2023-02-22T01:52:59;10.10;98.30
70107;DHT22;57473;37.508;15.080;2023-02-22T01:55:26;10.10;98.20
70107;DHT22;57473;37.508;15.080;2023-02-22T01:57:55;10.10;98.20
70107;DHT22;57473;37.508;15.080;2023-02-22T02:00:23;10.10;97.60
70107;DHT22;57473;37.508;15.080;2023-02-22T02:02:55;10.00;97.30
70107;DHT22;57473;37.508;15.080;2023-02-22T02:05:25;10.10;96.60
70107;DHT22;57473;37.508;15.080;2023-02-22T02:07:53;10.10;95.90
70107;DHT22;57473;37.508;15.080;2023-02-22T02:10:20;10.00;95.30
70107;DHT22;57473;37.508;15.080;2023-02-22T02:12:48;10.10;95.10
70107;DHT22;57473;37.508;15.080;2023-02-22T02:17:55;10.00;94.20
70107;DHT22;57473;37.508;15.080;2023-02-22T02:23:02;10.00;92.60
70107;DHT22;57473;37.508;15.080;2023-02-22T02:40:54;9.90;92.60
70107;DHT22;57473;37.508;15.080;2023-02-22T02:43:33;9.80;93.30
70107;DHT22;57473;37.508;15.080;2023-02-22T02:46:24;9.70;94.10
70107;DHT22;57473;37.508;15.080;2023-02-22T02:48:51;9.70;94.50
70107;DHT22;57473;37.508;15.080;2023-02-22T02:51:23;9.70;94.80
70107;DHT22;57473;37.508;15.080;2023-02-22T02:53:53;9.60;94.90
70107;DHT22;57473;37.508;15.080;2023-02-22T02:56:22;9.60;94.90
70107;DHT22;57473;37.508;15.080;2023-02-22T02:58:50;9.60;95.60
70107;DHT22;57473;37.508;15.080;2023-02-22T03:04:05;9.60;96.40
70107;DHT22;57473;37.508;15.080;2023-02-22T03:15:34;9.60;97.30
70107;DHT22;57473;37.508;15.080;2023-02-22T03:17:50;9.60;97.60
70107;DHT22;57473;37.508;15.080;2023-02-22T03:20:38;9.50;98.30
70107;DHT22;57473;37.508;15.080;2023-02-22T03:23:10;9.50;98.50
70107;DHT22;57473;37.508;15.080;2023-02-22T03:25:41;9.50;99.40
70107;DHT22;57473;37.508;15.080;2023-02-22T03:28:09;9.40;99.90
70107;DHT22;57473;37.508;15.080;2023-02-22T03:30:48;9.40;99.90
70107;DHT22;57473;37.508;15.080;2023-02-22T03:33:18;9.40;99.90
70107;DHT22;57473;37.508;15.080;2023-02-22T03:35:54;9.40;99.90
70107;DHT22;57473;37.508;15.080;2023-02-22T03:38:24;9.40;99.90
70107;DHT22;57473;37.508;15.080;2023-02-22T03:40:54;9.40;99.90
70107;DHT22;57473;37.508;15.080;2023-02-22T03:43:26;9.40;99.90
70107;DHT22;57473;37.508;15.080;2023-02-22T03:45:58;9.40;99.90
70107;DHT22;57473;37.508;15.080;2023-02-22T03:51:05;9.30;99.90
70107;DHT22;57473;37.508;15.080;2023-02-22T03:53:33;9.30;99.90
70107;DHT22;57473;37.508;15.080;2023-02-22T03:56:02;9.30;99.90
70107;DHT22;57473;37.508;15.080;2023-02-22T03:58:33;9.30;99.90
70107;DHT22;57473;37.508;15.080;2023-02-22T04:01:01;9.30;99.90
70107;DHT22;57473;37.508;15.080;2023-02-22T04:03:30;9.30;99.90
70107;DHT22;57473;37.508;15.080;2023-02-22T04:05:57;9.30;99.90
70107;DHT22;57473;37.508;15.080;2023-02-22T04:08:24;9.30;99.90
70107;DHT22;57473;37.508;15.080;2023-02-22T04:10:51;9.30;99.90
70107;DHT22;57473;37.508;15.080;2023-02-22T04:13:23;9.30;99.90
70107;DHT22;57473;37.508;15.080;2023-02-22T04:15:52;9.30;99.90
70107;DHT22;57473;37.508;15.080;2023-02-22T04:18:19;9.30;99.90
70107;DHT22;57473;37.508;15.080;2023-02-22T04:20:48;9.20;99.90
70107;DHT22;57473;37.508;15.080;2023-02-22T04:23:25;9.20;99.90
70107;DHT22;57473;37.508;15.080;2023-02-22T04:25:53;9.20;99.90
70107;DHT22;57473;37.508;15.080;2023-02-22T04:28:21;9.30;99.90
70107;DHT22;57473;37.508;15.080;2023-02-22T04:30:53;9.30;99.90
70107;DHT22;57473;37.508;15.080;2023-02-22T04:33:22;9.30;99.90
70107;DHT22;57473;37.508;15.080;2023-02-22T04:35:49;9.40;99.90
70107;DHT22;57473;37.508;15.080;2023-02-22T04:38:17;9.40;99.90
70107;DHT22;57473;37.508;15.080;2023-02-22T04:40:46;9.40;99.90
70107;DHT22;57473;37.508;15.080;2023-02-22T04:43:13;9.40;99.90
70107;DHT22;57473;37.508;15.080;2023-02-22T04:45:41;9.40;99.90
70107;DHT22;57473;37.508;15.080;2023-02-22T04:48:08;9.50;99.90
70107;DHT22;57473;37.508;15.080;2023-02-22T04:50:36;9.50;99.90
70107;DHT22;57473;37.508;15.080;2023-02-22T04:53:03;9.50;99.90
70107;DHT22;57473;37.508;15.080;2023-02-22T04:55:30;9.50;99.90
70107;DHT22;57473;37.508;15.080;2023-02-22T04:57:57;9.50;99.90
70107;DHT22;57473;37.508;15.080;2023-02-22T05:00:25;9.50;99.90
70107;DHT22;57473;37.508;15.080;2023-02-22T05:02:57;9.50;99.90
70107;DHT22;57473;37.508;15.080;2023-02-22T05:05:24;9.40;99.90
70107;DHT22;57473;37.508;15.080;2023-02-22T05:07:51;9.40;99.90
70107;DHT22;57473;37.508;15.080;2023-02-22T05:10:19;9.40;99.90
70107;DHT22;57473;37.508;15.080;2023-02-22T05:12:46;9.40;99.90
70107;DHT22;57473;37.508;15.080;2023-02-22T05:15:17;9.30;99.90
70107;DHT22;57473;37.508;15.080;2023-02-22T05:17:45;9.30;99.90
70107;DHT22;57473;37.508;15.080;2023-02-22T05:20:31;9.30;99.90
70107;DHT22;57473;37.508;15.080;2023-02-22T05:22:59;9.30;99.90
70107;DHT22;57473;37.508;15.080;2023-02-22T05:25:27;9.30;99.90
70107;DHT22;57473;37.508;15.080;2023-02-22T05:27:55;9.30;99.90
70107;DHT22;57473;37.508;15.080;2023-02-22T05:30:25;9.30;99.90
70107;DHT22;57473;37.508;15.080;2023-02-22T05:32:52;9.20;99.90
70107;DHT22;57473;37.508;15.080;2023-02-22T05:35:20;9.20;99.90
70107;DHT22;57473;37.508;15.080;2023-02-22T05:37:48;9.20;99.90
70107;DHT22;57473;37.508;15.080;2023-02-22T05:40:17;9.10;99.90
70107;DHT22;57473;37.508;15.080;2023-02-22T05:42:44;9.10;99.90
70107;DHT22;57473;37.508;15.080;2023-02-22T05:45:15;9.10;99.90
70107;DHT22;57473;37.508;15.080;2023-02-22T05:47:42;9.10;99.90
70107;DHT22;57473;37.508;15.080;2023-02-22T05:50:10;9.10;99.90
70107;DHT22;57473;37.508;15.080;2023-02-22T05:52:37;9.10;99.90
70107;DHT22;57473;37.508;15.080;2023-02-22T05:55:07;9.10;99.90
70107;DHT22;57473;37.508;15.080;2023-02-22T05:57:35;9.20;99.90
70107;DHT22;57473;37.508;15.080;2023-02-22T06:00:03;9.20;99.90
70107;DHT22;57473;37.508;15.080;2023-02-22T06:02:38;9.20;99.90
70107;DHT22;57473;37.508;15.080;2023-02-22T06:05:05;9.30;99.90
70107;DHT22;57473;37.508;15.080;2023-02-22T06:07:33;9.40;99.90
70107;DHT22;57473;37.508;15.080;2023-02-22T06:10:01;9.40;99.90
70107;DHT22;57473;37.508;15.080;2023-02-22T06:12:28;9.50;99.90
70107;DHT22;57473;37.508;15.080;2023-02-22T06:14:55;9.60;99.90
70107;DHT22;57473;37.508;15.080;2023-02-22T06:17:23;9.70;99.90
70107;DHT22;57473;37.508;15.080;2023-02-22T06:19:50;9.70;99.90
70107;DHT22;57473;37.508;15.080;2023-02-22T06:22:17;9.80;99.90
70107;DHT22;57473;37.508;15.080;2023-02-22T06:24:45;9.90;99.90
70107;DHT22;57473;37.508;15.080;2023-02-22T06:27:12;10.10;99.90
70107;DHT22;57473;37.508;15.080;2023-02-22T06:29:39;10.20;99.90
70107;DHT22;57473;37.508;15.080;2023-02-22T06:32:10;10.30;99.60
70107;DHT22;57473;37.508;15.080;2023-02-22T06:34:37;10.50;98.90
70107;DHT22;57473;37.508;15.080;2023-02-22T06:37:06;10.60;98.30
70107;DHT22;57473;37.508;15.080;2023-02-22T06:39:33;10.70;97.90
70107;DHT22;57473;37.508;15.080;2023-02-22T06:42:00;10.80;97.50
70107;DHT22;57473;37.508;15.080;2023-02-22T06:44:27;10.90;97.20
70107;DHT22;57473;37.508;15.080;2023-02-22T06:46:55;11.00;97.20
70107;DHT22;57473;37.508;15.080;2023-02-22T06:49:22;11.10;96.90
70107;DHT22;57473;37.508;15.080;2023-02-22T06:51:49;11.20;96.60
70107;DHT22;57473;37.508;15.080;2023-02-22T06:54:16;11.40;96.30
70107;DHT22;57473;37.508;15.080;2023-02-22T06:56:43;11.50;96.60
70107;DHT22;57473;37.508;15.080;2023-02-22T06:59:11;11.60;96.20
70107;DHT22;57473;37.508;15.080;2023-02-22T07:01:41;11.70;95.60
70107;DHT22;57473;37.508;15.080;2023-02-22T07:04:08;11.80;95.50
70107;DHT22;57473;37.508;15.080;2023-02-22T07:06:36;12.00;95.50
70107;DHT22;57473;37.508;15.080;2023-02-22T07:09:03;12.10;95.70
70107;DHT22;57473;37.508;15.080;2023-02-22T07:11:30;12.30;95.40
70107;DHT22;57473;37.508;15.080;2023-02-22T07:13:57;12.40;95.20
70107;DHT22;57473;37.508;15.080;2023-02-22T07:16:24;12.60;95.90
70107;DHT22;57473;37.508;15.080;2023-02-22T07:18:52;12.70;95.40
70107;DHT22;57473;37.508;15.080;2023-02-22T07:21:19;12.80;94.80
70107;DHT22;57473;37.508;15.080;2023-02-22T07:23:52;12.90;95.00
70107;DHT22;57473;37.508;15.080;2023-02-22T07:26:20;12.90;93.50
70107;DHT22;57473;37.508;15.080;2023-02-22T07:28:47;12.80;90.20
70107;DHT22;57473;37.508;15.080;2023-02-22T07:31:15;12.80;89.50
70107;DHT22;57473;37.508;15.080;2023-02-22T13:52:54;17.20;67.50
70107;DHT22;57473;37.508;15.080;2023-02-22T13:55:27;17.00;69.70
70107;DHT22;57473;37.508;15.080;2023-02-22T13:58:06;16.90;70.20
70107;DHT22;57473;37.508;15.080;2023-02-22T14:00:47;16.80;72.00
70107;DHT22;57473;37.508;15.080;2023-02-22T14:03:29;16.80;72.70
70107;DHT22;57473;37.508;15.080;2023-02-22T14:06:04;16.80;72.70
70107;DHT22;57473;37.508;15.080;2023-02-22T14:11:46;16.60;74.60
70107;DHT22;57473;37.508;15.080;2023-02-22T14:16:25;16.40;78.00
70107;DHT22;57473;37.508;15.080;2023-02-22T14:21:35;16.20;80.70
70107;DHT22;57473;37.508;15.080;2023-02-22T14:24:14;16.20;82.30
70107;DHT22;57473;37.508;15.080;2023-02-22T14:26:55;16.10;83.10
70107;DHT22;57473;37.508;15.080;2023-02-22T14:29:22;16.10;83.40
70107;DHT22;57473;37.508;15.080;2023-02-22T14:34:43;16.00;85.10
70107;DHT22;57473;37.508;15.080;2023-02-22T14:37:18;16.00;85.90
70107;DHT22;57473;37.508;15.080;2023-02-22T14:40:00;16.20;85.30
70107;DHT22;57473;37.508;15.080;2023-02-22T14:43:05;16.20;85.40
70107;DHT22;57473;37.508;15.080;2023-02-22T14:45:32;16.30;85.20
70107;DHT22;57473;37.508;15.080;2023-02-22T14:51:01;16.00;86.20
70107;DHT22;57473;37.508;15.080;2023-02-22T14:53:49;15.90;84.40
70107;DHT22;57473;37.508;15.080;2023-02-22T14:56:24;15.80;84.90
70107;DHT22;57473;37.508;15.080;2023-02-22T15:01:45;15.90;84.10
70107;DHT22;57473;37.508;15.080;2023-02-22T15:04:34;15.90;85.70
70107;DHT22;57473;37.508;15.080;2023-02-22T15:09:47;15.90;87.00
70107;DHT22;57473;37.508;15.080;2023-02-22T15:12:26;15.80;88.00
70107;DHT22;57473;37.508;15.080;2023-02-22T15:15:18;15.70;87.40
70107;DHT22;57473;37.508;15.080;2023-02-22T15:17:55;15.80;87.30
70107;DHT22;57473;37.508;15.080;2023-02-22T15:20:24;15.80;87.20
70107;DHT22;57473;37.508;15.080;2023-02-22T15:22:57;15.70;87.40
70107;DHT22;57473;37.508;15.080;2023-02-22T15:25:28;15.70;87.40
70107;DHT22;57473;37.508;15.080;2023-02-22T15:28:02;15.60;89.00
70107;DHT22;57473;37.508;15.080;2023-02-22T15:30:31;15.60;90.30
70107;DHT22;57473;37.508;15.080;2023-02-22T15:33:18;15.60;90.30
70107;DHT22;57473;37.508;15.080;2023-02-22T15:35:54;15.60;90.60
70107;DHT22;57473;37.508;15.080;2023-02-22T15:38:26;15.50;91.00
70107;DHT22;57473;37.508;15.080;2023-02-22T15:41:06;15.40;91.00
70107;DHT22;57473;37.508;15.080;2023-02-22T15:43:40;15.30;92.70
70107;DHT22;57473;37.508;15.080;2023-02-22T15:46:07;15.30;92.80
70107;DHT22;57473;37.508;15.080;2023-02-22T15:48:35;15.30;94.00
70107;DHT22;57473;37.508;15.080;2023-02-22T15:51:11;15.30;94.30
70107;DHT22;57473;37.508;15.080;2023-02-22T15:53:49;15.30;94.20
70107;DHT22;57473;37.508;15.080;2023-02-22T15:56:24;15.20;95.20
70107;DHT22;57473;37.508;15.080;2023-02-22T15:59:02;15.20;95.50
70107;DHT22;57473;37.508;15.080;2023-02-22T16:01:41;15.20;96.50
70107;DHT22;57473;37.508;15.080;2023-02-22T16:04:20;15.10;96.80
70107;DHT22;57473;37.508;15.080;2023-02-22T16:06:50;15.00;97.10
70107;DHT22;57473;37.508;15.080;2023-02-22T16:09:20;15.00;97.70
70107;DHT22;57473;37.508;15.080;2023-02-22T16:12:07;14.90;98.10
70107;DHT22;57473;37.508;15.080;2023-02-22T16:17:25;14.80;99.50
70107;DHT22;57473;37.508;15.080;2023-02-22T16:22:50;14.80;99.90
70107;DHT22;57473;37.508;15.080;2023-02-22T16:27:50;14.70;99.90
70107;DHT22;57473;37.508;15.080;2023-02-22T16:30:30;14.70;99.90
70107;DHT22;57473;37.508;15.080;2023-02-22T16:33:06;14.60;99.90
70107;DHT22;57473;37.508;15.080;2023-02-22T16:35:42;14.50;99.90
70107;DHT22;57473;37.508;15.080;2023-02-22T16:38:18;14.50;99.90
70107;DHT22;57473;37.508;15.080;2023-02-22T16:40:51;14.40;99.90
70107;DHT22;57473;37.508;15.080;2023-02-22T16:43:24;14.40;99.90
70107;DHT22;57473;37.508;15.080;2023-02-22T16:45:53;14.30;99.90
70107;DHT22;57473;37.508;15.080;2023-02-22T16:48:25;14.30;99.90
70107;DHT22;57473;37.508;15.080;2023-02-22T16:50:55;14.20;99.90
70107;DHT22;57473;37.508;15.080;2023-02-22T16:53:27;14.20;99.90
70107;DHT22;57473;37.508;15.080;2023-02-22T16:56:00;14.20;99.90
70107;DHT22;57473;37.508;15.080;2023-02-22T16:58:32;14.10;99.90
70107;DHT22;57473;37.508;15.080;2023-02-22T17:01:00;14.10;99.90
70107;DHT22;57473;37.508;15.080;2023-02-22T17:03:27;14.00;99.90
70107;DHT22;57473;37.508;15.080;2023-02-22T17:05:55;14.00;99.90
70107;DHT22;57473;37.508;15.080;2023-02-22T17:08:22;14.00;99.90
70107;DHT22;57473;37.508;15.080;2023-02-22T17:10:50;14.00;99.90
70107;DHT22;57473;37.508;15.080;2023-02-22T17:13:25;13.90;99.90
70107;DHT22;57473;37.508;15.080;2023-02-22T17:15:53;13.90;99.90
70107;DHT22;57473;37.508;15.080;2023-02-22T17:18:22;13.90;99.90
70107;DHT22;57473;37.508;15.080;2023-02-22T17:20:51;13.80;99.90
70107;DHT22;57473;37.508;15.080;2023-02-22T17:23:19;13.90;99.90
70107;DHT22;57473;37.508;15.080;2023-02-22T17:25:58;13.80;99.90
70107;DHT22;57473;37.508;15.080;2023-02-22T17:28:27;13.80;99.90
70107;DHT22;57473;37.508;15.080;2023-02-22T17:30:56;13.80;99.90
70107;DHT22;57473;37.508;15.080;2023-02-22T17:33:30;13.80;99.90
70107;DHT22;57473;37.508;15.080;2023-02-22T17:36:00;13.80;99.90
70107;DHT22;57473;37.508;15.080;2023-02-22T17:38:31;13.80;99.90
70107;DHT22;57473;37.508;15.080;2023-02-22T17:40:59;13.70;99.90
70107;DHT22;57473;37.508;15.080;2023-02-22T17:43:27;13.70;99.90
70107;DHT22;57473;37.508;15.080;2023-02-22T17:45:55;13.70;99.90
70107;DHT22;57473;37.508;15.080;2023-02-22T17:48:23;13.70;99.90
70107;DHT22;57473;37.508;15.080;2023-02-22T17:50:51;13.70;99.90
70107;DHT22;57473;37.508;15.080;2023-02-22T17:53:19;13.60;99.90
70107;DHT22;57473;37.508;15.080;2023-02-22T17:55:51;13.60;99.90
70107;DHT22;57473;37.508;15.080;2023-02-22T17:58:19;13.50;99.90
70107;DHT22;57473;37.508;15.080;2023-02-22T18:00:48;13.50;99.90
70107;DHT22;57473;37.508;15.080;2023-02-22T18:03:18;13.50;99.90
70107;DHT22;57473;37.508;15.080;2023-02-22T18:05:54;13.50;99.90
70107;DHT22;57473;37.508;15.080;2023-02-22T18:08:25;13.50;99.90
70107;DHT22;57473;37.508;15.080;2023-02-22T18:10:53;13.40;99.90
70107;DHT22;57473;37.508;15.080;2023-02-22T18:13:24;13.40;99.90
70107;DHT22;57473;37.508;15.080;2023-02-22T18:15:56;13.40;99.90
70107;DHT22;57473;37.508;15.080;2023-02-22T18:18:26;13.40;99.90
70107;DHT22;57473;37.508;15.080;2023-02-22T18:20:53;13.30;99.90
70107;DHT22;57473;37.508;15.080;2023-02-22T18:23:27;13.30;99.90
70107;DHT22;57473;37.508;15.080;2023-02-22T18:25:57;13.30;99.90
70107;DHT22;57473;37.508;15.080;2023-02-22T18:28:36;13.20;99.90
70107;DHT22;57473;37.508;15.080;2023-02-22T18:31:13;13.20;99.90
70107;DHT22;57473;37.508;15.080;2023-02-22T18:33:46;13.20;99.90
70107;DHT22;57473;37.508;15.080;2023-02-22T18:36:15;13.20;99.90
70107;DHT22;57473;37.508;15.080;2023-02-22T18:38:42;13.10;99.90
70107;DHT22;57473;37.508;15.080;2023-02-22T18:41:15;13.10;99.90
70107;DHT22;57473;37.508;15.080;2023-02-22T18:43:43;13.10;99.90
70107;DHT22;57473;37.508;15.080;2023-02-22T18:46:17;13.10;99.90
70107;DHT22;57473;37.508;15.080;2023-02-22T18:48:47;13.00;99.90
70107;DHT22;57473;37.508;15.080;2023-02-22T18:51:15;13.00;99.90
70107;DHT22;57473;37.508;15.080;2023-02-22T18:53:43;13.00;99.90
70107;DHT22;57473;37.508;15.080;2023-02-22T18:56:16;13.00;99.90
70107;DHT22;57473;37.508;15.080;2023-02-22T18:58:52;13.00;99.90
70107;DHT22;57473;37.508;15.080;2023-02-22T19:01:20;13.00;99.90
70107;DHT22;57473;37.508;15.080;2023-02-22T19:03:48;13.10;99.90
70107;DHT22;57473;37.508;15.080;2023-02-22T19:06:17;13.00;99.90
70107;DHT22;57473;37.508;15.080;2023-02-22T19:08:45;13.00;99.90
70107;DHT22;57473;37.508;15.080;2023-02-22T19:11:19;13.10;99.90
70107;DHT22;57473;37.508;15.080;2023-02-22T19:13:51;13.00;99.90
70107;DHT22;57473;37.508;15.080;2023-02-22T19:16:24;13.00;99.90
70107;DHT22;57473;37.508;15.080;2023-02-22T19:18:53;13.00;99.90
70107;DHT22;57473;37.508;15.080;2023-02-22T19:21:25;13.00;99.90
70107;DHT22;57473;37.508;15.080;2023-02-22T19:23:59;13.10;99.90
70107;DHT22;57473;37.508;15.080;2023-02-22T19:26:27;13.10;99.90
70107;DHT22;57473;37.508;15.080;2023-02-22T19:28:56;13.10;99.90
70107;DHT22;57473;37.508;15.080;2023-02-22T19:31:29;13.00;99.90
70107;DHT22;57473;37.508;15.080;2023-02-22T19:36:28;13.00;99.90
70107;DHT22;57473;37.508;15.080;2023-02-22T19:38:57;13.00;99.90
70107;DHT22;57473;37.508;15.080;2023-02-22T19:41:28;12.90;99.90
70107;DHT22;57473;37.508;15.080;2023-02-22T19:43:56;12.90;99.90
70107;DHT22;57473;37.508;15.080;2023-02-22T19:46:24;12.90;99.90
70107;DHT22;57473;37.508;15.080;2023-02-22T19:48:52;12.90;99.90
70107;DHT22;57473;37.508;15.080;2023-02-22T19:51:24;12.80;99.90
70107;DHT22;57473;37.508;15.080;2023-02-22T19:54:00;12.80;99.90
70107;DHT22;57473;37.508;15.080;2023-02-22T19:56:29;12.70;99.90
70107;DHT22;57473;37.508;15.080;2023-02-22T19:58:59;12.70;99.90
70107;DHT22;57473;37.508;15.080;2023-02-22T20:01:29;12.70;99.90
70107;DHT22;57473;37.508;15.080;2023-02-22T20:04:02;12.70;99.90
70107;DHT22;57473;37.508;15.080;2023-02-22T20:06:38;12.70;99.90
70107;DHT22;57473;37.508;15.080;2023-02-22T20:09:09;12.70;99.90
70107;DHT22;57473;37.508;15.080;2023-02-22T20:11:37;12.60;99.90
70107;DHT22;57473;37.508;15.080;2023-02-22T20:14:04;12.60;99.90
70107;DHT22;57473;37.508;15.080;2023-02-22T20:16:33;12.60;99.90
70107;DHT22;57473;37.508;15.080;2023-02-22T20:19:01;12.60;99.90
70107;DHT22;57473;37.508;15.080;2023-02-22T20:21:30;12.60;99.90
70107;DHT22;57473;37.508;15.080;2023-02-22T20:24:05;12.50;99.90
70107;DHT22;57473;37.508;15.080;2023-02-22T20:26:35;12.40;99.90
70107;DHT22;57473;37.508;15.080;2023-02-22T20:29:04;12.40;99.90
70107;DHT22;57473;37.508;15.080;2023-02-22T20:31:32;12.30;99.90
70107;DHT22;57473;37.508;15.080;2023-02-22T20:34:01;12.30;99.90
70107;DHT22;57473;37.508;15.080;2023-02-22T20:36:29;12.30;99.50
70107;DHT22;57473;37.508;15.080;2023-02-22T20:38:58;12.20;98.80
70107;DHT22;57473;37.508;15.080;2023-02-22T20:41:31;12.20;98.80
70107;DHT22;57473;37.508;15.080;2023-02-22T20:44:00;12.10;98.80
70107;DHT22;57473;37.508;15.080;2023-02-22T20:46:29;12.20;97.90
70107;DHT22;57473;37.508;15.080;2023-02-22T20:49:05;12.10;98.10
70107;DHT22;57473;37.508;15.080;2023-02-22T20:51:37;12.10;98.40
70107;DHT22;57473;37.508;15.080;2023-02-22T20:54:08;12.10;98.30
70107;DHT22;57473;37.508;15.080;2023-02-22T20:56:39;12.20;97.40
70107;DHT22;57473;37.508;15.080;2023-02-22T20:59:10;12.20;96.90
70107;DHT22;57473;37.508;15.080;2023-02-22T21:01:38;12.20;96.80
70107;DHT22;57473;37.508;15.080;2023-02-22T21:04:06;12.10;97.00
70107;DHT22;57473;37.508;15.080;2023-02-22T21:06:37;12.00;97.30
70107;DHT22;57473;37.508;15.080;2023-02-22T21:09:06;12.00;97.70
70107;DHT22;57473;37.508;15.080;2023-02-22T21:11:38;11.90;97.70
70107;DHT22;57473;37.508;15.080;2023-02-22T21:14:06;11.90;97.60
70107;DHT22;57473;37.508;15.080;2023-02-22T21:16:35;11.90;97.60
70107;DHT22;57473;37.508;15.080;2023-02-22T21:19:05;11.80;97.40
70107;DHT22;57473;37.508;15.080;2023-02-22T21:21:33;11.80;97.80
70107;DHT22;57473;37.508;15.080;2023-02-22T21:24:03;11.70;98.00
70107;DHT22;57473;37.508;15.080;2023-02-22T21:26:33;11.70;98.10
70107;DHT22;57473;37.508;15.080;2023-02-22T21:29:03;11.70;98.20
70107;DHT22;57473;37.508;15.080;2023-02-22T21:31:32;11.60;97.60
70107;DHT22;57473;37.508;15.080;2023-02-22T21:34:00;11.60;97.40
70107;DHT22;57473;37.508;15.080;2023-02-22T21:36:28;11.50;96.80
70107;DHT22;57473;37.508;15.080;2023-02-22T21:38:58;11.50;96.60
70107;DHT22;57473;37.508;15.080;2023-02-22T21:41:29;11.50;95.90
70107;DHT22;57473;37.508;15.080;2023-02-22T21:43:57;11.40;94.80
70107;DHT22;57473;37.508;15.080;2023-02-22T21:46:26;11.40;93.90
70107;DHT22;57473;37.508;15.080;2023-02-22T21:48:56;11.40;93.60
70107;DHT22;57473;37.508;15.080;2023-02-22T21:51:29;11.30;93.20
70107;DHT22;57473;37.508;15.080;2023-02-22T21:54:02;11.30;92.30
70107;DHT22;57473;37.508;15.080;2023-02-22T21:56:37;11.30;91.70
70107;DHT22;57473;37.508;15.080;2023-02-22T21:59:11;11.30;91.80
70107;DHT22;57473;37.508;15.080;2023-02-22T22:01:53;11.30;92.00
70107;DHT22;57473;37.508;15.080;2023-02-22T22:04:23;11.40;91.40
70107;DHT22;57473;37.508;15.080;2023-02-22T22:06:54;11.40;91.40
70107;DHT22;57473;37.508;15.080;2023-02-22T22:09:23;11.40;91.30
70107;DHT22;57473;37.508;15.080;2023-02-22T22:11:59;11.30;91.10
70107;DHT22;57473;37.508;15.080;2023-02-22T22:14:27;11.30;91.30
70107;DHT22;57473;37.508;15.080;2023-02-22T22:16:56;11.30;91.10
70107;DHT22;57473;37.508;15.080;2023-02-22T22:19:29;11.30;91.20
70107;DHT22;57473;37.508;15.080;2023-02-22T22:21:57;11.30;91.10
70107;DHT22;57473;37.508;15.080;2023-02-22T22:24:26;11.20;91.40
70107;DHT22;57473;37.508;15.080;2023-02-22T22:26:55;11.20;92.00
70107;DHT22;57473;37.508;15.080;2023-02-22T22:29:24;11.10;92.10
70107;DHT22;57473;37.508;15.080;2023-02-22T22:31:55;11.10;92.50
70107;DHT22;57473;37.508;15.080;2023-02-22T22:34:22;11.10;92.60
70107;DHT22;57473;37.508;15.080;2023-02-22T22:36:56;11.10;92.40
70107;DHT22;57473;37.508;15.080;2023-02-22T22:39:25;11.10;91.80
70107;DHT22;57473;37.508;15.080;2023-02-22T22:41:52;11.10;91.40
70107;DHT22;57473;37.508;15.080;2023-02-22T22:44:20;11.10;91.10
70107;DHT22;57473;37.508;15.080;2023-02-22T22:46:49;11.10;90.70
70107;DHT22;57473;37.508;15.080;2023-02-22T22:49:20;11.10;90.60
70107;DHT22;57473;37.508;15.080;2023-02-22T22:51:49;11.10;90.40
70107;DHT22;57473;37.508;15.080;2023-02-22T22:54:17;11.10;90.30
70107;DHT22;57473;37.508;15.080;2023-02-22T22:56:44;11.10;90.50
70107;DHT22;57473;37.508;15.080;2023-02-22T22:59:12;11.00;90.60
70107;DHT22;57473;37.508;15.080;2023-02-22T23:01:41;11.00;91.20
70107;DHT22;57473;37.508;15.080;2023-02-22T23:04:13;11.00;91.80
70107;DHT22;57473;37.508;15.080;2023-02-22T23:06:47;10.90;91.70